Flight Track Log - Related Links

Times and Time Zones

All times are in EDT time to prevent confusion due to time zone crossing. See the SLI2073 flight status page for this flight to view local times or setup timezone preferences in your user account.

Time Position Orientation Groundspeed Altitude Reporting Facility
EDT Latitude Longitude Course Direction KTS MPH feet Rate Location/Type
Thu 08:43:00 PM 23.8170 -109.6637 112° Southeast  Level Estimated
Thu 08:44:00 PM 23.7741 -109.5475 112° Southeast  Level Estimated
Thu 08:45:00 PM 23.7311 -109.4314 112° Southeast  Level Estimated
Thu 08:46:00 PM 23.6880 -109.3154 112° Southeast  Level Estimated
Thu 08:47:00 PM 23.6448 -109.1994 112° Southeast  Level Estimated
Thu 08:48:00 PM 23.6015 -109.0835 112° Southeast  Level Estimated
Thu 08:49:00 PM 23.5582 -108.9677 112° Southeast  Level Estimated
Thu 08:50:00 PM 23.5147 -108.8520 112° Southeast  Level Estimated
Thu 08:51:00 PM 23.4712 -108.7364 112° Southeast  Level Estimated
Thu 08:52:00 PM 23.4276 -108.6208 112° Southeast  Level Estimated
Thu 08:53:00 PM 23.3839 -108.5053 112° Southeast  Level Estimated
Thu 08:54:00 PM 23.3402 -108.3898 112° Southeast  Level Estimated
Thu 08:55:00 PM 23.2963 -108.2745 112° Southeast  Level Estimated
Thu 08:56:00 PM 23.2523 -108.1592 113° Southeast  Level Estimated
Thu 08:57:00 PM 23.2083 -108.0440 113° Southeast  Level Estimated
Thu 08:58:00 PM 23.1642 -107.9289 113° Southeast  Level Estimated
Thu 08:59:00 PM 23.1200 -107.8139 113° Southeast  Level Estimated
Thu 09:00:00 PM 23.0757 -107.6989 113° Southeast  Level Estimated
Thu 09:01:00 PM 23.0313 -107.5840 113° Southeast  Level Estimated
Thu 09:02:00 PM 22.9869 -107.4692 113° Southeast  Level Estimated
Thu 09:03:00 PM 22.9424 -107.3544 113° Southeast  Level Estimated
Thu 09:04:00 PM 22.8978 -107.2398 113° Southeast  Level Estimated
Thu 09:05:00 PM 22.8531 -107.1252 113° Southeast  Level Estimated
Thu 09:06:00 PM 22.8083 -107.0107 113° Southeast  Level Estimated
Thu 09:07:00 PM 22.7634 -106.8962 113° Southeast  Level Estimated
Thu 09:08:00 PM 22.7185 -106.7819 113° Southeast  Level Estimated
Thu 09:09:00 PM 22.6735 -106.6676 113° Southeast  Level Estimated
Thu 09:10:00 PM 22.6283 -106.5534 113° Southeast  Level Estimated
Thu 09:11:00 PM 22.5832 -106.4392 113° Southeast  Level Estimated
Thu 09:12:00 PM 22.5379 -106.3252 113° Southeast  Level Estimated
Thu 09:13:00 PM 22.4926 -106.2112 113° Southeast  Level Estimated
Thu 09:14:00 PM 22.4471 -106.0973 113° Southeast  Level Estimated
Thu 09:15:00 PM 22.4016 -105.9834 113° Southeast  Level Estimated
Thu 09:16:00 PM 22.3561 -105.8697 113° Southeast  Level Estimated
Thu 09:17:00 PM 22.3104 -105.7560 113° Southeast  Level Estimated
Thu 09:18:00 PM 22.2646 -105.6423 113° Southeast  Level Estimated
Thu 09:19:00 PM 22.2188 -105.5288 114° Southeast  Level Estimated
Thu 09:20:00 PM 22.1729 -105.4153 114° Southeast  Level Estimated
Thu 09:21:00 PM 22.1269 -105.3019 114° Southeast  Level Estimated
Thu 09:22:00 PM 22.0809 -105.1886 114° Southeast  Level Estimated
Thu 09:23:00 PM 22.0347 -105.0754 114° Southeast  Level Estimated
Thu 09:24:00 PM 21.9885 -104.9622 114° Southeast  Level Estimated
Thu 09:25:00 PM 21.9422 -104.8491 114° Southeast  Level Estimated
Thu 09:26:00 PM 21.8959 -104.7361 114° Southeast  Level Estimated
Thu 09:27:00 PM 21.8494 -104.6231 114° Southeast  Level Estimated
Thu 09:28:00 PM 21.8029 -104.5102 114° Southeast  Level Estimated
Thu 09:29:00 PM 21.7563 -104.3974 114° Southeast  Level Estimated
Thu 09:30:00 PM 21.7096 -104.2847 114° Southeast  Level Estimated
Thu 09:31:00 PM 21.6629 -104.1721 114° Southeast  Level Estimated
Thu 09:32:00 PM 21.6161 -104.0595 114° Southeast  Level Estimated
Thu 09:33:00 PM 21.5692 -103.9470 114° Southeast  Level Estimated
Thu 09:34:00 PM 21.5222 -103.8345 114° Southeast  Level Estimated
Thu 09:35:00 PM 21.4751 -103.7222 114° Southeast  Level Estimated
Thu 09:36:00 PM 21.4280 -103.6098 114° Southeast  Level Estimated
Thu 09:37:00 PM 21.3808 -103.4976 114° Southeast  Level Estimated
Thu 09:38:00 PM 21.3335 -103.3855 114° Southeast  Level Estimated
Thu 09:39:00 PM 21.2862 -103.2734 114° Southeast  Level Estimated
Thu 09:40:00 PM 21.2387 -103.1614 114° Southeast  Level Estimated
Thu 09:41:00 PM 21.1912 -103.0495 114° Southeast  Level Estimated
Thu 09:42:00 PM 21.1437 -102.9376 114° Southeast  Level Estimated
Thu 09:43:00 PM 21.0960 -102.8258 115° Southeast  Level Estimated
Thu 09:44:00 PM 21.0483 -102.7141 115° Southeast  Level Estimated
Thu 09:45:00 PM 21.0005 -102.6025 115° Southeast  Level Estimated
Thu 09:46:00 PM 20.9526 -102.4909 115° Southeast  Level Estimated
Thu 09:47:00 PM 20.9047 -102.3794 115° Southeast  Level Estimated
Thu 09:48:00 PM 20.8567 -102.2680 115° Southeast  Level Estimated
Thu 09:49:00 PM 20.8086 -102.1566 115° Southeast  Level Estimated
Thu 09:50:00 PM 20.7604 -102.0453 115° Southeast  Level Estimated
Thu 09:51:00 PM 20.7122 -101.9341 115° Southeast  Level Estimated
Thu 09:52:00 PM 20.6639 -101.8229 115° Southeast  Level Estimated
Thu 09:53:00 PM 20.6155 -101.7119 115° Southeast  Level Estimated
Thu 09:54:00 PM 20.5671 -101.6009 115° Southeast  Level Estimated
Thu 09:55:00 PM 20.5186 -101.4899 115° Southeast  Level Estimated
Thu 09:56:00 PM 20.4700 -101.3791 115° Southeast  Level Estimated
Thu 09:57:00 PM 20.4214 -101.2683 115° Southeast  Level Estimated
Thu 09:58:00 PM 20.3726 -101.1575 115° Southeast  Level Estimated
Thu 09:59:00 PM 20.3239 -101.0469 115° Southeast  Level Estimated
Thu 10:00:00 PM 20.2750 -100.9363 115° Southeast  Level Estimated
Thu 10:01:00 PM 20.2261 -100.8258 115° Southeast  Level Estimated
Thu 10:02:00 PM 20.1771 -100.7153 115° Southeast  Level Estimated
Thu 10:03:00 PM 20.1280 -100.6050 115° Southeast  Level Estimated
Thu 10:04:00 PM 20.0789 -100.4947 115° Southeast  Level Estimated
Thu 10:05:00 PM 20.0296 -100.3844 115° Southeast  Level Estimated
Thu 10:06:00 PM 19.9804 -100.2742 115° Southeast  Level Estimated
Thu 10:07:00 PM 19.9310 -100.1641 115° Southeast  Level Estimated
Thu 10:08:00 PM 19.8816 -100.0541 116° Southeast  Level Estimated
Thu 10:09:00 PM 19.8321 -99.9442 116° Southeast  Level Estimated
Thu 10:10:00 PM 19.7826 -99.8343 116° Southeast  Level Estimated
Thu 10:11:00 PM 19.7330 -99.7244 116° Southeast  Level Estimated
Thu 10:12:00 PM 19.6833 -99.6147 116° Southeast  Level Estimated
Thu 10:13:00 PM 19.6336 -99.5050 116° Southeast  Level Estimated
Thu 10:14:00 PM 19.5838 -99.3954 116° Southeast  Level Estimated
Thu 10:15:00 PM 19.5339 -99.2858 116° Southeast  Level Estimated
Thu 10:16:00 PM 19.4839 -99.1763 116° Southeast  Level Estimated
Thu 10:17:00 PM 19.4363 -99.0721 116° Southeast  Level Estimated
Thu 10:18:00 PM 19.4363 -99.0721 North  Level Estimated
Thu 10:19:00 PM 19.4363 -99.0721 North  Level Estimated
Thu 10:20:00 PM 19.4363 -99.0721 North  Level Estimated
Thu 10:21:00 PM 19.4363 -99.0721 North  Level Estimated
Thu 10:22:00 PM 19.4363 -99.0721 North  Level Estimated
Thu 10:23:00 PM 19.4363 -99.0721 North  Level Estimated
Thu 10:24:00 PM 19.4363 -99.0721 North  Level Estimated
Thu 10:25:00 PM 19.4363 -99.0721 North  Level Estimated
Thu 10:26:00 PM 19.4363 -99.0721 North  Level Estimated
Thu 10:27:00 PM 19.4363 -99.0721 North  Level Estimated
Thu 10:28:00 PM 19.4363 -99.0721 North  Level Estimated
Thu 10:29:00 PM 19.4363 -99.0721 North  Level Estimated
Thu 10:30:00 PM 19.4363 -99.0721 North  Level Estimated
Thu 10:31:00 PM 19.4363 -99.0721 North  Level Estimated
Thu 10:32:00 PM 19.4363 -99.0721 North  Level Estimated
Thu 10:33:00 PM 19.4363 -99.0721 North  Level Estimated

Login

Don't have an account? Register now (free) for customized features, flight alerts, and more!